Time;durP1;ratioP1;P1;durP2;ratioP2;P2;SDS_P1;SDS_P2;PMS_P1;PMS_P2;Temp;Humidity;BMP_temperature;BMP_pressure;BME280_temperature;BME280_humidity;BME280_pressure;Samples;Min_cycle;Max_cycle;Signal;HPM_P1;HPM_P2
2020/12/02 00:00:54;;;;;;;9.18;5.93;;;8.90;99.90;;;;;;5121658;27;20207;-73
2020/12/02 00:03:28;;;;;;;6.43;5.18;;;8.90;99.90;;;;;;5119606;27;20196;-73
2020/12/02 00:05:56;;;;;;;8.60;5.63;;;8.90;99.90;;;;;;5124979;27;20238;-74
2020/12/02 00:08:29;;;;;;;7.35;5.05;;;8.90;99.90;;;;;;5131446;27;20206;-73
2020/12/02 00:10:55;;;;;;;6.63;4.82;;;8.90;99.90;;;;;;5133173;27;20200;-73
2020/12/02 00:13:26;;;;;;;6.43;5.03;;;8.80;99.90;;;;;;5121124;27;20197;-73
2020/12/02 00:15:53;;;;;;;6.68;5.35;;;8.90;99.90;;;;;;5115455;27;20196;-74
2020/12/02 00:18:19;;;;;;;8.02;5.22;;;8.90;99.90;;;;;;5118054;27;20286;-74
2020/12/02 00:20:47;;;;;;;6.38;5.53;;;8.90;99.90;;;;;;5116854;27;20200;-73
2020/12/02 00:23:13;;;;;;;7.00;5.35;;;8.90;99.90;;;;;;5114874;27;20196;-73
2020/12/02 00:25:39;;;;;;;5.40;4.90;;;8.90;99.90;;;;;;5112992;28;20220;-74
2020/12/02 00:28:09;;;;;;;8.07;5.30;;;8.90;99.90;;;;;;5114474;27;20204;-77
2020/12/02 00:30:36;;;;;;;7.53;5.68;;;8.90;99.90;;;;;;5114607;27;20212;-74
2020/12/02 00:33:08;;;;;;;7.43;5.20;;;8.90;99.90;;;;;;5121415;27;20199;-75
2020/12/02 00:35:34;;;;;;;6.75;4.93;;;8.90;99.90;;;;;;5119291;27;20192;-75
2020/12/02 00:38:01;;;;;;;7.65;5.20;;;8.90;99.90;;;;;;5133694;27;20196;-76
2020/12/02 00:40:28;;;;;;;6.45;5.20;;;8.90;99.90;;;;;;5122731;27;20573;-75
2020/12/02 00:42:54;;;;;;;8.85;6.10;;;8.90;99.90;;;;;;5114530;27;20844;-75
2020/12/02 00:45:20;;;;;;;7.85;5.82;;;8.80;99.90;;;;;;5120520;27;20219;-74
2020/12/02 00:47:50;;;;;;;6.75;5.78;;;8.90;99.90;;;;;;5129457;27;20196;-75
2020/12/02 00:50:17;;;;;;;6.00;5.05;;;8.80;99.90;;;;;;5113384;27;20231;-74
2020/12/02 00:52:59;;;;;;;8.55;5.95;;;8.90;99.90;;;;;;5122792;27;20196;-73
2020/12/02 00:55:26;;;;;;;8.70;4.95;;;8.80;99.90;;;;;;5112006;27;20201;-75
2020/12/02 00:57:54;;;;;;;5.80;4.88;;;8.90;99.90;;;;;;5114720;28;20197;-75
2020/12/02 01:00:21;;;;;;;6.50;5.35;;;8.90;99.90;;;;;;5118559;27;20524;-75
2020/12/02 01:02:56;;;;;;;7.20;5.65;;;8.80;99.90;;;;;;5132502;27;20197;-75
2020/12/02 01:05:23;;;;;;;6.40;5.63;;;8.80;99.90;;;;;;5120793;27;20720;-74
2020/12/02 01:07:49;;;;;;;7.38;5.68;;;8.90;99.90;;;;;;5113873;27;20201;-74
2020/12/02 01:10:16;;;;;;;8.00;5.45;;;8.80;99.90;;;;;;5123443;27;20204;-74
2020/12/02 01:12:46;;;;;;;6.10;5.22;;;8.80;99.90;;;;;;5121486;27;20620;-74
2020/12/02 01:15:16;;;;;;;5.68;4.57;;;8.80;99.90;;;;;;5126173;27;20184;-72
2020/12/02 01:17:42;;;;;;;8.60;6.00;;;8.80;99.90;;;;;;5132982;27;20200;-74
2020/12/02 01:20:09;;;;;;;10.15;6.90;;;8.80;99.90;;;;;;5118129;27;20200;-73
2020/12/02 01:22:39;;;;;;;10.20;6.50;;;8.80;99.90;;;;;;5118290;27;20203;-74
2020/12/02 01:25:11;;;;;;;10.13;6.40;;;8.80;99.90;;;;;;5132458;27;20220;-76
2020/12/02 01:27:41;;;;;;;8.32;5.45;;;8.80;99.90;;;;;;5114714;27;20197;-74
2020/12/02 01:30:13;;;;;;;7.70;5.72;;;8.80;99.90;;;;;;5112857;27;20196;-74
2020/12/02 01:32:41;;;;;;;7.65;6.18;;;8.80;99.90;;;;;;5116788;27;20214;-73
2020/12/02 01:35:09;;;;;;;8.52;6.05;;;8.80;99.90;;;;;;5134292;27;20199;-74
2020/12/02 01:37:38;;;;;;;7.07;5.47;;;8.80;99.90;;;;;;5129499;27;20200;-73
2020/12/02 01:40:14;;;;;;;8.70;5.32;;;8.80;99.90;;;;;;5113195;27;20240;-74
2020/12/02 01:42:44;;;;;;;6.53;5.70;;;8.80;99.90;;;;;;5127569;27;20200;-73
2020/12/02 01:45:18;;;;;;;8.70;6.63;;;8.80;99.90;;;;;;5113069;27;20231;-73
2020/12/02 01:47:58;;;;;;;7.80;6.05;;;8.80;99.90;;;;;;5132840;27;20230;-75
2020/12/02 01:50:35;;;;;;;9.63;6.88;;;8.70;99.90;;;;;;5116276;27;20188;-73
2020/12/02 01:53:07;;;;;;;8.27;5.93;;;8.80;99.90;;;;;;5131748;27;20180;-75
2020/12/02 01:55:41;;;;;;;6.88;5.32;;;8.80;99.90;;;;;;5127959;27;20402;-75
2020/12/02 01:58:16;;;;;;;9.35;5.50;;;8.70;99.90;;;;;;5116652;27;20199;-75
2020/12/02 02:00:47;;;;;;;8.00;6.05;;;8.70;99.90;;;;;;5113715;27;20204;-75
2020/12/02 02:03:16;;;;;;;6.70;5.68;;;8.80;99.90;;;;;;5115968;27;20203;-74
2020/12/02 02:05:50;;;;;;;5.85;5.25;;;8.80;99.90;;;;;;5115687;27;20219;-76
2020/12/02 02:08:19;;;;;;;8.05;6.32;;;8.80;99.90;;;;;;5113124;27;20203;-73
2020/12/02 02:10:49;;;;;;;6.53;5.00;;;8.70;99.90;;;;;;5112266;27;20193;-75
2020/12/02 02:13:44;;;;;;;8.68;6.20;;;8.70;99.90;;;;;;5112301;27;20189;-75
2020/12/02 02:16:13;;;;;;;6.28;5.07;;;8.70;99.90;;;;;;5112372;27;20200;-75
2020/12/02 02:18:40;;;;;;;6.43;5.80;;;8.70;99.90;;;;;;5114153;27;20207;-75
2020/12/02 02:21:08;;;;;;;8.10;6.35;;;8.80;99.90;;;;;;5130224;27;20192;-74
2020/12/02 02:23:34;;;;;;;7.40;5.57;;;8.70;99.90;;;;;;5121992;27;20200;-74
2020/12/02 02:26:16;;;;;;;11.50;6.20;;;8.70;99.90;;;;;;5123130;27;20788;-74
2020/12/02 02:28:47;;;;;;;7.30;5.38;;;8.70;99.90;;;;;;5114674;27;20211;-74
2020/12/02 02:31:19;;;;;;;6.88;5.90;;;8.70;99.90;;;;;;5119590;27;20205;-75
2020/12/02 02:33:46;;;;;;;9.65;6.75;;;8.70;99.90;;;;;;5114150;27;20197;-75
2020/12/02 02:36:14;;;;;;;5.32;4.82;;;8.70;99.90;;;;;;5116799;27;20188;-76
2020/12/02 02:38:40;;;;;;;8.20;6.03;;;8.70;99.90;;;;;;5125968;27;20243;-75
2020/12/02 02:41:10;;;;;;;8.68;5.88;;;8.70;99.90;;;;;;5131900;27;20195;-75
2020/12/02 02:43:38;;;;;;;8.55;6.68;;;8.70;99.90;;;;;;5121421;27;20195;-75
2020/12/02 02:46:05;;;;;;;10.57;5.45;;;8.70;99.90;;;;;;5127645;27;20220;-75
2020/12/02 02:48:31;;;;;;;7.90;5.90;;;8.70;99.90;;;;;;5119926;27;20193;-74
2020/12/02 02:50:58;;;;;;;6.60;5.90;;;8.70;99.90;;;;;;5112557;27;20193;-74
2020/12/02 02:53:25;;;;;;;6.85;6.07;;;8.70;99.90;;;;;;5115021;27;20203;-74
2020/12/02 02:55:53;;;;;;;6.80;5.70;;;8.70;99.90;;;;;;5118031;28;20188;-74
2020/12/02 02:58:25;;;;;;;7.78;6.38;;;8.70;99.90;;;;;;5122324;27;20197;-74
2020/12/02 03:00:51;;;;;;;7.63;6.88;;;8.60;99.90;;;;;;5119154;28;20628;-74
2020/12/02 03:03:19;;;;;;;6.60;5.95;;;8.70;99.90;;;;;;5121186;27;20203;-74
2020/12/02 03:05:46;;;;;;;6.18;4.82;;;8.60;99.90;;;;;;5110798;28;20709;-74
2020/12/02 03:08:14;;;;;;;7.05;5.20;;;8.60;99.90;;;;;;5112096;28;20196;-74
2020/12/02 03:10:43;;;;;;;8.93;6.32;;;8.60;99.90;;;;;;5112150;28;20208;-74
2020/12/02 03:13:25;;;;;;;5.38;4.88;;;8.60;99.90;;;;;;5118488;28;20196;-73
2020/12/02 03:15:52;;;;;;;6.50;5.72;;;8.60;99.90;;;;;;5131791;27;20184;-73
2020/12/02 03:18:19;;;;;;;7.57;6.00;;;8.60;99.90;;;;;;5111730;28;20196;-74
2020/12/02 03:20:51;;;;;;;5.90;5.15;;;8.60;99.90;;;;;;5111777;28;20200;-73
2020/12/02 03:23:18;;;;;;;6.63;5.90;;;8.60;99.90;;;;;;5123528;28;20196;-74
2020/12/02 03:25:45;;;;;;;6.05;5.18;;;8.60;99.90;;;;;;5128798;27;20212;-73
2020/12/02 03:28:12;;;;;;;6.82;6.13;;;8.70;99.90;;;;;;5111846;28;20193;-75
2020/12/02 03:30:39;;;;;;;7.05;6.13;;;8.60;99.90;;;;;;5114454;28;20196;-74
2020/12/02 03:33:09;;;;;;;9.23;5.95;;;8.60;99.90;;;;;;5117846;27;20212;-74
2020/12/02 03:35:36;;;;;;;7.65;6.13;;;8.60;99.90;;;;;;5120430;28;20189;-73
2020/12/02 03:38:03;;;;;;;7.70;6.90;;;8.60;99.90;;;;;;5111950;28;20524;-73
2020/12/02 03:40:29;;;;;;;7.45;6.47;;;8.60;99.90;;;;;;5122501;28;20196;-73
2020/12/02 03:42:56;;;;;;;8.35;6.95;;;8.60;99.90;;;;;;5119313;27;20195;-74
2020/12/02 03:45:23;;;;;;;7.22;5.75;;;8.60;99.90;;;;;;5132217;27;20211;-74
2020/12/02 03:47:50;;;;;;;7.18;5.78;;;8.60;99.90;;;;;;5117044;27;20189;-73
2020/12/02 03:50:17;;;;;;;8.15;6.95;;;8.60;99.90;;;;;;5112362;28;20197;-75
2020/12/02 03:52:43;;;;;;;8.27;6.22;;;8.60;99.90;;;;;;5110698;28;20611;-75
2020/12/02 03:55:11;;;;;;;10.18;6.53;;;8.60;99.90;;;;;;5111859;28;20200;-74
2020/12/02 03:57:37;;;;;;;7.57;6.80;;;8.60;99.90;;;;;;5111578;28;20197;-75
2020/12/02 04:00:12;;;;;;;8.65;7.05;;;8.60;99.90;;;;;;5128380;27;20192;-74
2020/12/02 04:02:38;;;;;;;7.38;5.90;;;8.50;99.90;;;;;;5120205;27;20195;-74
2020/12/02 04:05:07;;;;;;;7.05;6.35;;;8.60;99.90;;;;;;5122064;27;20204;-74
2020/12/02 04:07:33;;;;;;;7.22;5.85;;;8.60;99.90;;;;;;5132382;27;20544;-75
2020/12/02 04:10:00;;;;;;;7.80;6.85;;;8.60;99.90;;;;;;5127147;27;20192;-74
2020/12/02 04:12:26;;;;;;;7.65;6.80;;;8.60;99.90;;;;;;5127623;27;20193;-74
2020/12/02 04:14:52;;;;;;;11.50;7.07;;;8.50;99.90;;;;;;5118007;27;20208;-74
2020/12/02 04:17:19;;;;;;;7.30;6.60;;;8.50;99.90;;;;;;5116583;27;20197;-74
2020/12/02 04:19:45;;;;;;;6.65;6.05;;;8.50;99.90;;;;;;5114020;27;20207;-74
2020/12/02 04:22:12;;;;;;;9.10;6.95;;;8.50;99.90;;;;;;5114399;27;20196;-74
2020/12/02 04:24:38;;;;;;;8.60;6.97;;;8.50;99.90;;;;;;5114743;27;20209;-74
2020/12/02 04:27:05;;;;;;;8.10;6.10;;;8.50;99.90;;;;;;5114435;28;20657;-74
2020/12/02 04:29:32;;;;;;;7.53;6.63;;;8.50;99.90;;;;;;5114476;27;20674;-74
2020/12/02 04:31:59;;;;;;;7.65;6.32;;;8.50;99.90;;;;;;5114905;27;20204;-74
2020/12/02 04:34:25;;;;;;;7.82;6.28;;;8.50;99.90;;;;;;5133071;27;20203;-74
2020/12/02 04:36:52;;;;;;;8.75;6.97;;;8.50;99.90;;;;;;5114450;27;20211;-74
2020/12/02 04:39:20;;;;;;;6.30;5.68;;;8.50;99.90;;;;;;5114392;27;20231;-74
2020/12/02 04:41:46;;;;;;;7.35;6.43;;;8.50;99.90;;;;;;5114506;27;20200;-74
2020/12/02 04:44:13;;;;;;;7.82;7.03;;;8.50;99.90;;;;;;5119525;27;20208;-74
2020/12/02 04:46:40;;;;;;;8.38;6.47;;;8.50;99.90;;;;;;5114013;28;20193;-74
2020/12/02 04:49:14;;;;;;;7.72;6.85;;;8.50;99.90;;;;;;5114551;28;20199;-74
2020/12/02 04:51:41;;;;;;;7.43;6.70;;;8.50;99.90;;;;;;5113147;27;20192;-74
2020/12/02 04:54:08;;;;;;;6.38;5.78;;;8.50;99.90;;;;;;5117932;27;20201;-74
2020/12/02 04:56:41;;;;;;;6.65;5.95;;;8.50;99.90;;;;;;5113549;28;20205;-73
2020/12/02 04:59:08;;;;;;;6.57;5.85;;;8.40;99.90;;;;;;5126516;27;20192;-73
2020/12/02 05:01:45;;;;;;;8.43;6.32;;;8.40;99.90;;;;;;5134344;27;20192;-73
2020/12/02 05:04:17;;;;;;;7.10;6.40;;;8.40;99.90;;;;;;5113181;28;20207;-73
2020/12/02 05:06:46;;;;;;;6.95;6.13;;;8.40;99.90;;;;;;5113762;28;20216;-73
2020/12/02 05:09:17;;;;;;;8.43;5.95;;;8.50;99.90;;;;;;5113761;27;20193;-73
2020/12/02 05:11:58;;;;;;;7.95;6.32;;;8.40;99.90;;;;;;5113815;27;20207;-74
2020/12/02 05:14:31;;;;;;;7.20;6.38;;;8.40;99.90;;;;;;5113580;28;20201;-74
2020/12/02 05:17:04;;;;;;;7.55;6.57;;;8.50;99.90;;;;;;5117976;27;20367;-74
2020/12/02 05:19:30;;;;;;;8.18;5.40;;;8.50;99.90;;;;;;5122351;27;20201;-74
2020/12/02 05:22:05;;;;;;;7.85;6.55;;;8.50;99.90;;;;;;5132584;27;20203;-74
2020/12/02 05:24:46;;;;;;;7.93;6.85;;;8.40;99.90;;;;;;5115433;27;20617;-74
2020/12/02 05:27:17;;;;;;;6.47;5.35;;;8.40;99.90;;;;;;5125532;27;20188;-75
2020/12/02 05:29:53;;;;;;;8.18;7.15;;;8.50;99.90;;;;;;5113497;28;20204;-75
2020/12/02 05:32:22;;;;;;;8.80;6.97;;;8.50;99.90;;;;;;5112627;28;20192;-73
2020/12/02 05:34:49;;;;;;;8.13;6.05;;;8.50;99.90;;;;;;5125404;27;20227;-73
2020/12/02 05:37:24;;;;;;;10.25;6.20;;;8.40;99.90;;;;;;5127739;27;20200;-74
2020/12/02 05:39:54;;;;;;;7.75;5.40;;;8.40;99.90;;;;;;5120111;27;20232;-74
2020/12/02 05:42:33;;;;;;;8.90;7.35;;;8.40;99.90;;;;;;5112717;28;20275;-74
2020/12/02 05:45:07;;;;;;;6.95;5.22;;;8.40;99.90;;;;;;5112647;28;20752;-73
2020/12/02 05:47:34;;;;;;;6.78;6.15;;;8.40;99.90;;;;;;5115194;27;20616;-73
2020/12/02 05:50:02;;;;;;;8.38;6.85;;;8.40;99.90;;;;;;5114586;27;20193;-73
2020/12/02 05:52:34;;;;;;;6.63;5.72;;;8.40;99.90;;;;;;5122510;27;20201;-73
2020/12/02 05:55:05;;;;;;;7.55;5.50;;;8.30;99.90;;;;;;5112740;28;20617;-73
2020/12/02 05:57:39;;;;;;;7.53;6.25;;;8.30;99.90;;;;;;5114721;27;20242;-72
2020/12/02 06:00:06;;;;;;;6.93;6.18;;;8.30;99.90;;;;;;5128336;27;20212;-72
2020/12/02 06:02:33;;;;;;;7.20;5.85;;;8.30;99.90;;;;;;5118562;27;20188;-72
2020/12/02 06:04:59;;;;;;;6.93;5.97;;;8.40;99.90;;;;;;5126864;27;20208;-74
2020/12/02 06:07:25;;;;;;;9.20;6.70;;;8.40;99.90;;;;;;5130166;27;20196;-73
2020/12/02 06:09:53;;;;;;;7.75;6.57;;;8.40;99.90;;;;;;5121247;27;20204;-72
2020/12/02 06:12:21;;;;;;;7.80;6.53;;;8.40;99.90;;;;;;5114497;27;20205;-73
2020/12/02 06:14:50;;;;;;;8.10;6.60;;;8.30;99.90;;;;;;5115589;27;20193;-73
2020/12/02 06:17:27;;;;;;;8.20;6.30;;;8.30;99.90;;;;;;5112205;28;20199;-73
2020/12/02 06:19:53;;;;;;;8.45;6.18;;;8.30;99.90;;;;;;5112779;27;20192;-73
2020/12/02 06:22:36;;;;;;;9.52;6.60;;;8.30;99.90;;;;;;5131128;27;20196;-73
2020/12/02 06:25:04;;;;;;;6.68;5.70;;;8.30;99.90;;;;;;5112488;27;20212;-73
2020/12/02 06:27:43;;;;;;;7.03;6.20;;;8.30;99.90;;;;;;5133300;27;20215;-72
2020/12/02 06:30:18;;;;;;;8.02;6.82;;;8.30;99.90;;;;;;5115907;27;20188;-72
2020/12/02 06:33:11;;;;;;;8.60;6.07;;;8.30;99.90;;;;;;5114886;27;20196;-72
2020/12/02 06:35:38;;;;;;;8.80;6.93;;;8.30;99.90;;;;;;5128851;27;20622;-71
2020/12/02 06:38:27;;;;;;;6.60;5.22;;;8.30;99.90;;;;;;5114271;27;20212;-74
2020/12/02 06:41:32;;;;;;;8.45;6.93;;;8.30;99.90;;;;;;5132069;27;20205;-73
2020/12/02 06:44:18;;;;;;;6.72;5.80;;;8.30;99.90;;;;;;5122849;27;20275;-75
2020/12/02 06:47:17;;;;;;;9.20;7.00;;;8.30;99.90;;;;;;5112314;28;20207;-73
2020/12/02 06:49:45;;;;;;;9.40;6.50;;;8.30;99.90;;;;;;5109320;27;20208;-75
2020/12/02 06:52:21;;;;;;;7.43;6.35;;;8.30;99.90;;;;;;5128972;27;20203;-74
2020/12/02 06:54:47;;;;;;;7.93;6.60;;;8.30;99.90;;;;;;5116756;27;20200;-73
2020/12/02 06:57:22;;;;;;;7.97;6.30;;;8.30;99.90;;;;;;5112658;28;20528;-73
2020/12/02 06:59:50;;;;;;;8.93;6.18;;;8.30;99.90;;;;;;5111844;28;20198;-73
2020/12/02 07:02:38;;;;;;;11.73;7.88;;;8.30;99.90;;;;;;5116142;27;20543;-73
2020/12/02 07:05:11;;;;;;;6.90;5.72;;;8.30;99.90;;;;;;5115597;28;20212;-74
2020/12/02 07:07:37;;;;;;;7.28;6.45;;;8.30;99.90;;;;;;5117796;27;20184;-73
2020/12/02 07:10:04;;;;;;;7.43;6.47;;;8.30;99.90;;;;;;5112569;27;20193;-74
2020/12/02 07:12:31;;;;;;;6.93;5.50;;;8.30;99.90;;;;;;5131640;27;20654;-73
2020/12/02 07:15:01;;;;;;;10.82;6.20;;;8.30;99.90;;;;;;5132334;27;20207;-74
2020/12/02 07:17:28;;;;;;;8.57;5.60;;;8.20;99.90;;;;;;5112526;27;20203;-75
2020/12/02 07:20:03;;;;;;;9.73;6.30;;;8.20;99.90;;;;;;5121197;28;20204;-74
2020/12/02 07:22:34;;;;;;;7.80;6.57;;;8.20;99.90;;;;;;5128356;27;20213;-74
2020/12/02 07:25:04;;;;;;;8.80;6.45;;;8.20;99.90;;;;;;5129251;27;20548;-74
2020/12/02 07:27:31;;;;;;;6.40;5.75;;;8.20;99.90;;;;;;5112623;28;20193;-73
2020/12/02 07:29:58;;;;;;;6.82;5.88;;;8.20;99.90;;;;;;5111188;28;20207;-73
2020/12/02 07:32:25;;;;;;;8.38;6.75;;;8.20;99.90;;;;;;5110085;28;20536;-73
2020/12/02 07:35:00;;;;;;;7.60;6.35;;;8.20;99.90;;;;;;5119795;27;20583;-81
2020/12/02 07:37:26;;;;;;;9.45;5.90;;;8.20;99.90;;;;;;5120400;27;20249;-74
2020/12/02 07:39:56;;;;;;;6.90;5.82;;;8.20;99.90;;;;;;5123289;27;20228;-75
2020/12/02 07:42:28;;;;;;;7.15;6.32;;;8.20;99.90;;;;;;5131264;27;20647;-74
2020/12/02 07:45:02;;;;;;;6.70;5.78;;;8.20;99.90;;;;;;5133869;27;20247;-75
2020/12/02 07:47:29;;;;;;;9.40;5.90;;;8.10;99.90;;;;;;5121610;27;20195;-77
2020/12/02 07:50:02;;;;;;;6.72;5.13;;;8.10;99.90;;;;;;5121171;27;20187;-77
2020/12/02 07:52:37;;;;;;;6.88;5.90;;;8.10;99.90;;;;;;5124025;27;20184;-77
2020/12/02 07:55:07;;;;;;;6.88;5.20;;;8.10;99.90;;;;;;5119815;27;20188;-77
2020/12/02 07:57:35;;;;;;;7.20;5.22;;;8.10;99.90;;;;;;5124588;27;20200;-77
2020/12/02 08:00:23;;;;;;;7.35;5.65;;;8.10;99.90;;;;;;5119176;27;20193;-77
2020/12/02 08:02:49;;;;;;;7.70;6.20;;;8.10;99.90;;;;;;5116958;27;20197;-77
2020/12/02 08:05:43;;;;;;;8.80;6.05;;;8.20;99.90;;;;;;5115541;27;20270;-76
2020/12/02 08:08:09;;;;;;;11.85;6.70;;;8.10;99.90;;;;;;5115933;27;20529;-77
2020/12/02 08:10:37;;;;;;;6.32;5.43;;;8.20;99.90;;;;;;5127167;27;20275;-76
2020/12/02 08:13:12;;;;;;;7.70;6.82;;;8.10;99.90;;;;;;5126554;27;20196;-77
2020/12/02 08:15:48;;;;;;;8.43;5.78;;;8.10;99.90;;;;;;5131676;27;20211;-75
2020/12/02 08:18:17;;;;;;;7.85;5.80;;;8.20;99.90;;;;;;5115198;27;20200;-75
2020/12/02 08:20:45;;;;;;;8.40;7.40;;;8.10;99.90;;;;;;5115103;27;20215;-75
2020/12/02 08:23:16;;;;;;;6.80;6.10;;;8.20;99.90;;;;;;5115325;28;20193;-75
2020/12/02 08:26:03;;;;;;;10.40;6.57;;;8.10;99.90;;;;;;5115035;28;20942;-75
2020/12/02 08:28:35;;;;;;;8.77;6.38;;;8.10;99.90;;;;;;5114953;28;20199;-75
2020/12/02 08:31:07;;;;;;;7.57;6.15;;;8.10;99.90;;;;;;5125520;27;20187;-75
2020/12/02 08:33:33;;;;;;;8.10;6.38;;;8.10;99.90;;;;;;5135500;27;20576;-75
2020/12/02 08:36:07;;;;;;;7.38;5.72;;;8.10;99.90;;;;;;5138249;27;20196;-75
2020/12/02 08:38:37;;;;;;;8.52;6.00;;;8.10;99.90;;;;;;5135984;27;20672;-75
2020/12/02 08:41:14;;;;;;;7.05;6.10;;;8.10;99.90;;;;;;5116309;27;20532;-75
2020/12/02 08:43:46;;;;;;;7.15;5.80;;;8.10;99.90;;;;;;5118205;27;20188;-75
2020/12/02 08:46:18;;;;;;;8.35;5.40;;;8.10;99.90;;;;;;5119846;27;20215;-75
2020/12/02 08:48:48;;;;;;;6.90;5.80;;;8.20;99.90;;;;;;5133720;27;20207;-75
2020/12/02 08:51:17;;;;;;;7.53;5.95;;;8.20;99.90;;;;;;5134089;27;20200;-75
2020/12/02 08:53:44;;;;;;;6.97;4.97;;;8.10;99.90;;;;;;5131075;27;20201;-75
2020/12/02 08:56:31;;;;;;;10.45;7.80;;;8.20;99.90;;;;;;5114472;28;20228;-76
2020/12/02 08:58:57;;;;;;;9.18;6.43;;;8.10;99.90;;;;;;5114445;28;20200;-75
2020/12/02 09:01:23;;;;;;;8.27;6.55;;;8.10;99.90;;;;;;5113691;27;20624;-75
2020/12/02 09:03:50;;;;;;;8.43;6.22;;;8.10;99.90;;;;;;5124680;27;20200;-75
2020/12/02 09:06:19;;;;;;;7.20;5.95;;;8.20;99.90;;;;;;5115948;27;20223;-75
2020/12/02 09:08:45;;;;;;;6.35;5.07;;;8.20;99.90;;;;;;5114363;28;20193;-75
2020/12/02 09:11:13;;;;;;;7.55;5.93;;;8.20;99.90;;;;;;5117502;27;20210;-75
2020/12/02 09:13:40;;;;;;;10.43;6.93;;;8.10;99.90;;;;;;5115135;27;20204;-75
2020/12/02 09:16:06;;;;;;;7.88;6.30;;;8.20;99.90;;;;;;5114087;28;20200;-75
2020/12/02 09:18:32;;;;;;;7.85;6.38;;;8.20;99.90;;;;;;5131786;27;20519;-75
2020/12/02 09:20:59;;;;;;;7.55;6.25;;;8.20;99.90;;;;;;5116282;27;20236;-75
2020/12/02 09:23:25;;;;;;;7.20;5.75;;;8.20;99.90;;;;;;5114260;28;20204;-75
2020/12/02 09:25:51;;;;;;;7.50;5.93;;;8.20;99.90;;;;;;5114625;27;20213;-75
2020/12/02 09:28:18;;;;;;;6.95;5.22;;;8.20;99.90;;;;;;5113787;28;20201;-77
2020/12/02 09:30:45;;;;;;;7.75;5.95;;;8.20;99.90;;;;;;5123552;27;20196;-74
2020/12/02 09:33:11;;;;;;;6.55;5.72;;;8.20;99.90;;;;;;5134106;27;20203;-73
2020/12/02 09:35:37;;;;;;;6.75;5.43;;;8.20;99.90;;;;;;5120968;27;20197;-76
2020/12/02 09:38:08;;;;;;;7.97;6.65;;;8.20;99.90;;;;;;5113749;28;20196;-75
2020/12/02 09:40:34;;;;;;;5.72;5.15;;;8.20;99.90;;;;;;5114112;28;20278;-75
2020/12/02 09:43:31;;;;;;;7.55;5.65;;;8.20;99.90;;;;;;5129522;27;20211;-75
2020/12/02 09:46:05;;;;;;;6.10;5.50;;;8.20;99.90;;;;;;5120508;27;20227;-77
2020/12/02 09:48:31;;;;;;;8.23;5.45;;;8.20;99.90;;;;;;5133806;27;20200;-77
2020/12/02 09:50:58;;;;;;;6.78;5.57;;;8.20;99.90;;;;;;5126410;27;20201;-77
2020/12/02 09:53:26;;;;;;;6.15;4.93;;;8.20;99.90;;;;;;5127813;27;20624;-77
2020/12/02 09:55:53;;;;;;;8.52;6.20;;;8.20;99.90;;;;;;5113506;28;20197;-77
2020/12/02 09:58:19;;;;;;;6.32;5.03;;;8.20;99.90;;;;;;5123911;27;20192;-77
2020/12/02 10:00:45;;;;;;;7.15;5.50;;;8.20;99.90;;;;;;5133003;27;20643;-77
2020/12/02 10:03:40;;;;;;;7.68;6.22;;;8.20;99.90;;;;;;5122305;27;20193;-76
2020/12/02 10:06:31;;;;;;;7.95;6.70;;;8.20;99.90;;;;;;5125360;27;20205;-76
2020/12/02 10:09:25;;;;;;;7.93;5.10;;;8.20;99.90;;;;;;5113290;28;20652;-76
2020/12/02 10:11:59;;;;;;;7.88;4.78;;;8.10;99.90;;;;;;5113783;27;20181;-74
2020/12/02 10:14:39;;;;;;;5.60;4.45;;;8.10;99.90;;;;;;5132349;27;20188;-76
2020/12/02 10:17:18;;;;;;;6.13;5.40;;;8.20;99.90;;;;;;5121761;27;20188;-77
2020/12/02 10:20:02;;;;;;;6.80;4.90;;;8.20;99.90;;;;;;5133834;27;20184;-77
2020/12/02 10:22:50;;;;;;;6.80;5.63;;;8.20;99.90;;;;;;5116112;27;20656;-75
2020/12/02 10:25:24;;;;;;;6.63;5.07;;;8.20;99.90;;;;;;5127423;27;20243;-76
2020/12/02 10:28:02;;;;;;;7.20;5.75;;;8.20;99.90;;;;;;5127677;27;20188;-75
2020/12/02 10:30:31;;;;;;;7.00;5.68;;;8.10;99.90;;;;;;5115509;27;20204;-74
2020/12/02 10:33:10;;;;;;;6.60;5.05;;;8.10;99.90;;;;;;5113412;27;20540;-76
2020/12/02 10:35:42;;;;;;;4.97;4.43;;;8.10;99.90;;;;;;5125661;27;20191;-77
2020/12/02 10:38:12;;;;;;;8.60;6.15;;;8.20;99.90;;;;;;5120476;27;20197;-77
2020/12/02 10:40:42;;;;;;;7.60;6.00;;;8.20;99.90;;;;;;5131855;27;20211;-75
2020/12/02 10:43:18;;;;;;;6.85;5.47;;;8.20;99.90;;;;;;5119235;27;20181;-77
2020/12/02 10:45:49;;;;;;;6.35;5.47;;;8.10;99.90;;;;;;5115608;27;20655;-75
2020/12/02 10:48:27;;;;;;;6.43;4.70;;;8.10;99.90;;;;;;5112833;27;20200;-75
2020/12/02 10:50:56;;;;;;;8.27;5.93;;;8.10;99.90;;;;;;5113030;28;20207;-74
2020/12/02 10:53:25;;;;;;;7.53;5.82;;;8.10;99.90;;;;;;5131093;27;20188;-75
2020/12/02 10:55:52;;;;;;;6.35;4.88;;;8.10;99.90;;;;;;5122091;28;20229;-76
2020/12/02 10:58:21;;;;;;;6.90;5.80;;;8.10;99.90;;;;;;5124857;27;20217;-75
2020/12/02 11:00:52;;;;;;;7.38;5.97;;;8.10;99.90;;;;;;5120996;27;20196;-74
2020/12/02 11:03:24;;;;;;;5.60;4.63;;;8.10;99.90;;;;;;5112934;28;20200;-75
2020/12/02 11:06:10;;;;;;;6.93;5.22;;;8.10;99.90;;;;;;5127779;28;20235;-75
2020/12/02 11:08:46;;;;;;;6.88;5.40;;;8.10;99.90;;;;;;5115125;28;20193;-75
2020/12/02 11:11:28;;;;;;;6.57;5.25;;;8.20;99.90;;;;;;5129897;27;20195;-75
2020/12/02 11:14:06;;;;;;;5.32;4.15;;;8.20;99.90;;;;;;5136197;27;20260;-75
2020/12/02 11:16:39;;;;;;;6.32;5.00;;;8.20;99.90;;;;;;5126274;27;20196;-74
2020/12/02 11:19:32;;;;;;;8.20;5.63;;;8.20;99.90;;;;;;5123347;27;20523;-75
2020/12/02 11:22:09;;;;;;;5.38;4.72;;;8.20;99.90;;;;;;5130182;27;20199;-74
2020/12/02 11:25:11;;;;;;;5.63;4.97;;;8.20;99.90;;;;;;5120900;27;20196;-74
2020/12/02 11:27:37;;;;;;;6.13;4.85;;;8.20;99.90;;;;;;5123341;27;20187;-75
2020/12/02 11:30:10;;;;;;;6.13;5.03;;;8.20;99.90;;;;;;5129787;27;20196;-77
2020/12/02 11:33:19;;;;;;;7.30;5.15;;;8.20;99.90;;;;;;5117968;27;20193;-75
2020/12/02 11:36:15;;;;;;;5.88;4.82;;;8.20;99.90;;;;;;5124891;27;20199;-74
2020/12/02 11:38:54;;;;;;;6.47;4.72;;;8.20;99.90;;;;;;5135694;27;20220;-75
2020/12/02 11:41:29;;;;;;;5.13;4.20;;;8.20;99.90;;;;;;5134282;27;20196;-75
2020/12/02 11:43:58;;;;;;;5.70;4.95;;;8.20;99.90;;;;;;5120002;27;20547;-74
2020/12/02 11:46:27;;;;;;;5.57;4.63;;;8.20;99.90;;;;;;5115710;27;20220;-74
2020/12/02 11:49:00;;;;;;;5.50;4.13;;;8.20;99.90;;;;;;5124390;27;20208;-74
2020/12/02 11:51:35;;;;;;;6.15;4.57;;;8.20;99.90;;;;;;5126348;27;20193;-74
2020/12/02 11:54:04;;;;;;;6.53;5.13;;;8.20;99.90;;;;;;5124746;27;20175;-75
2020/12/02 11:56:35;;;;;;;8.27;5.35;;;8.20;99.90;;;;;;5120689;27;20200;-74
2020/12/02 11:59:04;;;;;;;7.18;5.50;;;8.20;99.90;;;;;;5123042;27;20193;-74
2020/12/02 12:01:50;;;;;;;5.32;4.80;;;8.20;99.90;;;;;;5121384;27;20197;-74
2020/12/02 12:04:29;;;;;;;6.85;5.03;;;8.20;99.90;;;;;;5131470;27;20200;-74
2020/12/02 12:07:01;;;;;;;5.05;4.18;;;8.20;99.90;;;;;;5114749;28;20204;-74
2020/12/02 12:09:36;;;;;;;11.07;5.50;;;8.20;99.90;;;;;;5114457;28;20208;-74
2020/12/02 12:12:12;;;;;;;9.07;5.80;;;8.20;99.90;;;;;;5115573;27;20203;-72
2020/12/02 12:14:50;;;;;;;6.43;5.40;;;8.20;99.90;;;;;;5118253;27;20207;-73
2020/12/02 12:17:23;;;;;;;7.35;5.22;;;8.10;99.90;;;;;;5126160;27;20199;-74
2020/12/02 12:19:55;;;;;;;11.85;6.60;;;8.20;99.90;;;;;;5125380;27;20189;-74
2020/12/02 12:22:30;;;;;;;9.07;5.65;;;8.20;99.90;;;;;;5115440;27;20189;-73
2020/12/02 12:25:00;;;;;;;6.72;4.75;;;8.20;99.90;;;;;;5129101;27;20195;-73
2020/12/02 12:27:27;;;;;;;6.72;5.97;;;8.20;99.90;;;;;;5134576;27;20224;-74
2020/12/02 12:29:55;;;;;;;6.55;5.53;;;8.20;99.90;;;;;;5114874;28;20211;-74
2020/12/02 12:32:31;;;;;;;11.18;6.63;;;8.20;99.90;;;;;;5115771;27;20200;-74
2020/12/02 12:35:00;;;;;;;9.10;6.38;;;8.10;99.90;;;;;;5115285;27;20516;-74
2020/12/02 12:37:35;;;;;;;10.35;5.60;;;8.10;99.90;;;;;;5130428;27;20521;-73
2020/12/02 12:40:11;;;;;;;8.63;5.38;;;8.10;99.90;;;;;;5128514;27;20237;-73
2020/12/02 12:42:38;;;;;;;6.47;5.07;;;8.10;99.90;;;;;;5129464;27;20220;-74
2020/12/02 12:45:11;;;;;;;7.40;4.83;;;8.20;99.90;;;;;;5114899;27;20265;-74
2020/12/02 12:47:39;;;;;;;11.35;6.75;;;8.20;99.90;;;;;;5114854;28;20399;-73
2020/12/02 12:50:08;;;;;;;7.85;5.13;;;8.20;99.90;;;;;;5114715;27;20197;-74
2020/12/02 12:52:37;;;;;;;11.68;5.00;;;8.20;99.90;;;;;;5114839;28;20197;-73
2020/12/02 12:55:05;;;;;;;10.23;5.55;;;8.20;99.90;;;;;;5114122;27;20196;-74
2020/12/02 12:57:32;;;;;;;6.10;5.38;;;8.20;99.90;;;;;;5118390;27;20798;-73
2020/12/02 13:00:00;;;;;;;6.25;4.53;;;8.20;99.90;;;;;;5129405;27;20196;-73
2020/12/02 13:02:29;;;;;;;12.20;5.88;;;8.20;99.90;;;;;;5123429;27;20253;-74
2020/12/02 13:04:55;;;;;;;7.55;5.45;;;8.20;99.90;;;;;;5139243;27;20252;-76
2020/12/02 13:07:24;;;;;;;7.90;5.72;;;8.20;99.90;;;;;;5126949;27;20223;-73
2020/12/02 13:10:22;;;;;;;5.00;4.50;;;8.20;99.90;;;;;;5115096;27;20208;-72
2020/12/02 13:13:10;;;;;;;4.75;4.32;;;8.20;99.90;;;;;;5115300;27;20188;-74
2020/12/02 13:15:47;;;;;;;9.55;5.30;;;8.10;99.90;;;;;;5109073;27;20188;-74
2020/12/02 13:18:22;;;;;;;7.97;5.35;;;8.10;99.90;;;;;;5129975;27;20210;-73